Time;durP1;ratioP1;P1;durP2;ratioP2;P2;SDS_P1;SDS_P2;PMS_P1;PMS_P2;Temp;Humidity;BMP_temperature;BMP_pressure;BME280_temperature;BME280_humidity;BME280_pressure;Samples;Min_cycle;Max_cycle;Signal;HPM_P1;HPM_P2
2022/12/06 00:01:10;;;;;;;7.93;6.60;;;;;;;5.41;67.39;100086.00;5051576;28;20088;-83
2022/12/06 00:03:37;;;;;;;6.50;5.78;;;;;;;5.45;67.54;100085.88;5131742;22;20053;-79
2022/12/06 00:06:10;;;;;;;7.20;5.63;;;;;;;5.43;67.38;100087.69;5032468;28;20122;-79
2022/12/06 00:08:37;;;;;;;;;;;;;;;5.45;67.65;100090.25;5050545;28;20060;-79
2022/12/06 00:11:08;;;;;;;8.15;6.13;;;;;;;5.47;67.03;100085.84;5050676;28;19947;-79
2022/12/06 00:13:35;;;;;;;8.50;5.90;;;;;;;5.46;67.68;100091.97;5050337;28;20061;-79
2022/12/06 00:16:04;;;;;;;8.77;5.75;;;;;;;5.45;67.53;100087.63;5050216;28;20052;-79
2022/12/06 00:18:35;;;;;;;9.80;6.43;;;;;;;5.42;67.42;100085.13;5050355;28;20057;-79
2022/12/06 00:21:09;;;;;;;8.85;6.82;;;;;;;5.41;67.79;100092.09;5050335;28;20135;-79
2022/12/06 00:23:37;;;;;;;11.18;7.47;;;;;;;5.44;67.50;100088.53;5050625;28;20171;-79
2022/12/06 00:26:05;;;;;;;13.68;7.40;;;;;;;5.44;67.61;100084.19;5050180;28;20083;-79
2022/12/06 00:28:33;;;;;;;13.27;7.50;;;;;;;5.45;67.58;100087.63;5032171;28;20143;-79
2022/12/06 00:31:01;;;;;;;11.50;7.80;;;;;;;5.47;67.55;100083.22;5050098;28;20358;-79
2022/12/06 00:33:28;;;;;;;15.82;8.23;;;;;;;5.47;67.62;100076.22;5049802;28;20144;-79
2022/12/06 00:35:55;;;;;;;15.20;7.90;;;;;;;5.48;67.69;100082.31;5049864;28;20135;-78
2022/12/06 00:38:21;;;;;;;10.00;7.40;;;;;;;5.48;67.67;100082.31;5050105;28;20343;-78
2022/12/06 00:40:48;;;;;;;28.58;8.70;;;;;;;5.50;67.77;100085.75;5050082;28;20136;-78
2022/12/06 00:43:15;;;;;;;11.48;7.07;;;;;;;5.50;67.81;100084.88;5049884;28;20049;-79
2022/12/06 00:45:43;;;;;;;20.35;7.15;;;;;;;5.51;67.78;100092.69;5049743;28;20099;-79
2022/12/06 00:48:09;;;;;;;19.77;7.70;;;;;;;5.52;67.65;100083.94;5049637;28;20081;-79
2022/12/06 00:50:36;;;;;;;15.90;6.88;;;;;;;5.51;67.58;100087.47;5050097;28;20138;-79
2022/12/06 00:53:02;;;;;;;16.00;6.30;;;;;;;5.53;67.75;100083.03;5049950;28;20081;-78
2022/12/06 00:55:28;;;;;;;15.18;6.90;;;;;;;5.54;67.65;100081.28;5049778;28;20085;-79
2022/12/06 00:57:55;;;;;;;23.08;7.78;;;;;;;5.55;67.85;100082.97;5049811;28;20060;-78
2022/12/06 01:00:21;;;;;;;15.27;7.28;;;;;;;5.56;67.93;100084.69;5049803;28;20092;-79
2022/12/06 01:02:47;;;;;;;20.85;7.03;;;;;;;5.55;67.72;100089.06;5049611;28;20131;-79
2022/12/06 01:05:14;;;;;;;27.73;8.27;;;;;;;5.57;68.01;100092.47;5049374;28;20411;-78
2022/12/06 01:07:40;;;;;;;18.45;7.50;;;;;;;5.57;67.80;100084.66;5049536;28;20487;-79
2022/12/06 01:10:07;;;;;;;19.33;7.65;;;;;;;5.58;67.86;100085.50;5049437;28;20499;-79
2022/12/06 01:12:33;;;;;;;16.80;6.57;;;;;;;5.58;68.04;100088.97;5049667;28;20052;-79
2022/12/06 01:15:00;;;;;;;11.25;7.03;;;;;;;5.59;67.98;100088.09;5049526;28;20081;-79
2022/12/06 01:17:26;;;;;;;12.68;7.90;;;;;;;5.60;68.03;100084.56;5049884;28;20091;-78
2022/12/06 01:19:52;;;;;;;18.08;7.00;;;;;;;5.61;67.91;100078.44;5050208;28;20140;-78
2022/12/06 01:22:19;;;;;;;13.77;6.78;;;;;;;5.63;68.14;100078.38;5031770;28;20075;-79
2022/12/06 01:24:46;;;;;;;22.20;7.63;;;;;;;5.66;68.09;100078.28;5049742;28;20127;-79
2022/12/06 01:27:13;;;;;;;12.02;7.10;;;;;;;5.67;68.15;100084.34;5049555;28;20090;-78
2022/12/06 01:29:39;;;;;;;21.02;7.65;;;;;;;5.68;68.07;100079.09;5031730;28;20107;-78
2022/12/06 01:32:05;;;;;;;26.50;7.40;;;;;;;5.70;68.05;100082.53;5049464;28;20601;-78
2022/12/06 01:34:32;;;;;;;10.90;7.22;;;;;;;5.72;68.06;100085.94;5049537;28;20060;-79
2022/12/06 01:36:58;;;;;;;23.08;6.85;;;;;;;5.74;68.18;100081.53;5049312;28;20080;-79
2022/12/06 01:39:24;;;;;;;41.55;7.93;;;;;;;5.76;68.27;100076.25;5049415;28;20595;-79
2022/12/06 01:41:51;;;;;;;12.88;7.38;;;;;;;5.77;67.99;100087.53;5031636;28;20089;-79
2022/12/06 01:44:44;;;;;;;28.42;7.80;;;;;;;5.74;68.51;100078.91;5049253;28;20505;-79
2022/12/06 01:47:36;;;;;;;19.55;7.22;;;;;;;5.77;68.80;100085.78;5035492;28;20096;-78
2022/12/06 01:50:14;;;;;;;17.88;6.93;;;;;;;5.80;68.80;100088.28;5053094;28;20127;-78
2022/12/06 01:52:49;;;;;;;39.67;7.93;;;;;;;5.83;68.39;100077.75;5035178;28;20060;-78
2022/12/06 01:55:18;;;;;;;9.10;6.22;;;;;;;5.84;68.40;100074.22;5053063;28;20524;-78
2022/12/06 01:57:46;;;;;;;33.50;8.77;;;;;;;5.87;68.07;100075.91;5035328;28;20088;-78
2022/12/06 02:00:13;;;;;;;13.07;6.80;;;;;;;5.89;68.54;100076.69;5053018;28;20048;-79
2022/12/06 02:02:39;;;;;;;22.90;7.03;;;;;;;5.92;68.34;100075.75;5053118;28;20084;-78
2022/12/06 02:05:07;;;;;;;34.58;7.93;;;;;;;5.94;68.37;100073.94;5051537;28;20056;-79
2022/12/06 02:07:33;;;;;;;63.63;8.93;;;;;;;5.95;68.30;100071.25;5034894;28;20085;-79
2022/12/06 02:10:01;;;;;;;54.95;7.60;;;;;;;5.97;68.75;100071.22;5052873;28;20148;-79
2022/12/06 02:12:28;;;;;;;40.65;7.60;;;;;;;5.98;68.28;100070.34;5052691;28;20088;-79
2022/12/06 02:14:55;;;;;;;13.20;6.75;;;;;;;6.01;68.15;100075.44;5052521;28;20061;-79
2022/12/06 02:17:34;;;;;;;37.53;7.75;;;;;;;5.99;68.81;100067.66;5052515;28;20099;-79
2022/12/06 02:20:34;;;;;;;19.45;6.40;;;;;;;6.00;68.97;100069.38;5052440;28;20060;-80
2022/12/06 02:23:13;;;;;;;35.47;6.68;;;;;;;6.07;68.59;100067.44;5052554;28;20110;-79
2022/12/06 02:26:06;;;;;;;54.72;7.63;;;;;;;6.06;68.68;100064.88;5052327;28;20080;-79
2022/12/06 02:28:58;;;;;;;56.28;6.40;;;;;;;6.06;68.66;100060.47;5052433;28;20439;-78
2022/12/06 02:31:41;;;;;;;57.70;6.60;;;;;;;6.10;68.96;100058.63;5034696;28;20088;-78
2022/12/06 02:34:29;;;;;;;39.63;6.28;;;;;;;6.11;69.18;100049.88;5052176;28;20581;-79
2022/12/06 02:37:02;;;;;;;54.13;7.18;;;;;;;6.15;68.59;100043.66;5052241;28;20188;-79
2022/12/06 02:39:35;;;;;;;57.55;7.20;;;;;;;6.15;68.79;100054.09;5052157;28;20118;-78
2022/12/06 02:42:07;;;;;;;;;;;;;;;6.18;69.08;100045.31;5052474;28;20093;-78
2022/12/06 02:44:45;;;;;;;15.73;4.95;;;;;;;6.20;68.87;100056.59;5052122;28;20000;-78
2022/12/06 02:47:15;;;;;;;26.08;4.35;;;;;;;6.23;68.36;100053.84;5051772;28;20144;-79
2022/12/06 02:49:45;;;;;;;75.35;7.00;;;;;;;6.20;68.64;100043.50;5051993;28;20151;-79
2022/12/06 02:52:12;;;;;;;9.10;5.35;;;;;;;6.23;68.78;100038.16;5051989;28;20045;-79
2022/12/06 02:54:42;;;;;;;10.05;5.80;;;;;;;6.23;68.37;100044.25;5051732;28;20139;-79
2022/12/06 02:57:09;;;;;;;10.23;6.03;;;;;;;6.24;68.71;100040.72;5051811;28;20204;-79
2022/12/06 02:59:35;;;;;;;8.07;6.20;;;;;;;6.26;68.66;100040.66;5051549;28;20091;-79
2022/12/06 03:02:05;;;;;;;9.43;5.90;;;;;;;6.26;68.52;100040.66;5051993;28;20076;-79
2022/12/06 03:04:48;;;;;;;23.35;6.05;;;;;;;6.26;68.85;100051.13;5051635;28;20139;-79
2022/12/06 03:07:30;;;;;;;12.23;5.97;;;;;;;6.28;68.97;100041.47;5051498;28;20475;-79
2022/12/06 03:10:06;;;;;;;11.20;5.87;;;;;;;6.31;69.04;100041.34;5051590;28;20494;-79
2022/12/06 03:12:58;;;;;;;13.23;5.80;;;;;;;6.31;69.12;100043.97;5051612;28;20052;-79
2022/12/06 03:15:36;;;;;;;28.40;7.00;;;;;;;6.33;68.92;100036.94;5051339;28;20119;-79
2022/12/06 03:18:30;;;;;;;15.45;5.93;;;;;;;6.33;68.99;100034.34;5051398;28;20143;-79
2022/12/06 03:21:12;;;;;;;13.93;6.18;;;;;;;6.37;68.71;100033.31;5051380;28;20526;-79
2022/12/06 03:23:41;;;;;;;42.63;7.45;;;;;;;6.39;68.47;100028.00;5051512;28;20087;-79
2022/12/06 03:26:12;;;;;;;51.63;6.90;;;;;;;6.40;68.64;100040.19;5051673;28;20077;-79
2022/12/06 03:28:40;;;;;;;24.65;7.00;;;;;;;6.42;68.59;100043.59;5051017;28;20118;-79
2022/12/06 03:31:10;;;;;;;22.25;6.78;;;;;;;6.43;68.90;100041.84;5051351;28;20184;-79
2022/12/06 03:33:45;;;;;;;20.65;6.40;;;;;;;6.42;68.91;100042.75;5051128;28;20502;-79
2022/12/06 03:36:13;;;;;;;38.45;7.20;;;;;;;6.45;68.86;100040.03;5051224;28;20057;-79
2022/12/06 03:38:48;;;;;;;7.88;5.90;;;;;;;6.44;68.80;100040.94;5050964;28;20076;-79
2022/12/06 03:41:17;;;;;;;45.22;7.90;;;;;;;6.46;68.62;100037.34;5050917;28;20049;-80
2022/12/06 03:43:44;;;;;;;46.70;8.20;;;;;;;6.47;68.81;100030.38;5051009;28;20080;-78
2022/12/06 03:46:20;;;;;;;17.55;6.88;;;;;;;6.46;68.90;100031.25;5050647;28;20080;-79
2022/12/06 03:48:57;;;;;;;48.03;7.05;;;;;;;6.47;68.94;100033.81;5050835;28;20057;-79
2022/12/06 03:51:27;;;;;;;29.35;6.30;;;;;;;6.51;68.79;100032.81;5050910;28;20098;-78
2022/12/06 03:53:58;;;;;;;25.75;7.07;;;;;;;6.52;69.13;100031.06;5051167;28;20533;-78
2022/12/06 03:56:25;;;;;;;9.68;6.20;;;;;;;6.55;68.71;100032.72;5051421;28;20141;-78
2022/12/06 03:58:51;;;;;;;20.35;6.70;;;;;;;6.56;68.82;100027.44;5051009;28;20585;-78
2022/12/06 04:01:18;;;;;;;9.88;5.70;;;;;;;6.57;68.79;100030.88;5051277;28;20140;-78
2022/12/06 04:03:44;;;;;;;8.20;6.00;;;;;;;6.58;68.75;100030.00;5051079;28;20114;-78
2022/12/06 04:06:11;;;;;;;9.73;6.38;;;;;;;6.59;69.18;100029.94;5050930;28;20519;-78
2022/12/06 04:08:38;;;;;;;8.80;6.57;;;;;;;6.61;69.17;100033.34;5050739;28;20091;-78
2022/12/06 04:11:05;;;;;;;7.47;5.63;;;;;;;6.62;69.03;100032.44;5051089;28;20107;-78
2022/12/06 04:13:32;;;;;;;6.97;5.35;;;;;;;6.65;68.96;100028.84;5051060;28;20080;-78
2022/12/06 04:16:00;;;;;;;6.20;4.75;;;;;;;6.65;68.89;100032.31;5050880;28;20076;-79
2022/12/06 04:18:27;;;;;;;5.88;4.57;;;;;;;6.68;68.87;100031.34;5050927;28;20053;-79
2022/12/06 04:23:40;;;;;;;5.55;4.05;;;;;;;6.69;68.91;100030.44;5050895;28;20094;-80
2022/12/06 04:26:11;;;;;;;5.43;4.28;;;;;;;6.69;69.20;100034.84;5050847;28;20049;-79
2022/12/06 04:39:40;;;;;;;4.10;3.13;;;;;;;6.73;68.83;100028.59;5050622;28;20073;-79
2022/12/06 04:44:52;;;;;;;4.70;3.33;;;;;;;6.73;68.89;100029.41;5050512;28;20148;-79
2022/12/06 04:47:19;;;;;;;4.45;3.53;;;;;;;6.74;69.21;100025.06;5050344;28;20338;-79
2022/12/06 04:49:45;;;;;;;5.05;3.35;;;;;;;6.75;69.18;100024.13;5050602;28;20053;-80
2022/12/06 04:52:12;;;;;;;5.00;3.70;;;;;;;6.77;68.85;100017.09;5050612;28;20144;-79
2022/12/06 04:54:38;;;;;;;7.38;3.40;;;;;;;6.78;69.39;100024.03;5050546;28;20084;-80
2022/12/06 04:57:09;;;;;;;5.30;3.85;;;;;;;6.80;69.16;100019.56;5050489;28;20111;-80
2022/12/06 04:59:38;;;;;;;4.65;3.80;;;;;;;6.80;69.20;100019.56;5050521;28;20056;-80
2022/12/06 05:02:05;;;;;;;5.75;3.90;;;;;;;6.82;69.09;100015.16;5050672;28;20407;-79
2022/12/06 05:04:32;;;;;;;4.68;3.75;;;;;;;6.83;68.84;100014.25;5050355;28;20498;-79
2022/12/06 05:06:58;;;;;;;5.35;3.90;;;;;;;6.85;68.80;100019.41;5050448;28;20060;-79
2022/12/06 05:09:25;;;;;;;5.47;4.38;;;;;;;6.86;68.75;100011.53;5050489;28;20455;-80
2022/12/06 05:11:52;;;;;;;5.38;3.92;;;;;;;6.86;68.86;100021.13;5050286;28;20100;-79
2022/12/06 05:14:19;;;;;;;8.88;4.30;;;;;;;6.86;68.91;100011.53;5050237;28;20065;-80
2022/12/06 05:16:45;;;;;;;7.18;4.32;;;;;;;6.87;68.88;100013.22;5032267;28;20103;-80
2022/12/06 05:19:12;;;;;;;5.28;4.13;;;;;;;6.87;69.08;100007.13;5050215;28;20656;-79
2022/12/06 05:21:38;;;;;;;8.32;4.45;;;;;;;6.87;68.72;100013.22;5053965;28;20136;-80
2022/12/06 05:24:06;;;;;;;5.28;3.88;;;;;;;6.88;68.98;100008.84;5054083;28;20132;-80
2022/12/06 05:26:32;;;;;;;6.50;5.07;;;;;;;6.89;68.98;100006.16;5053899;28;20095;-80
2022/12/06 05:28:59;;;;;;;5.65;4.13;;;;;;;6.90;69.10;100007.00;5054237;28;20053;-79
2022/12/06 05:31:26;;;;;;;5.55;4.07;;;;;;;6.91;69.17;100008.72;5053996;28;20131;-79
2022/12/06 05:33:53;;;;;;;7.03;4.68;;;;;;;6.92;68.93;100002.59;5053841;28;20061;-79
2022/12/06 05:36:25;;;;;;;6.60;4.35;;;;;;;6.91;68.94;100004.34;5053812;28;20075;-79
2022/12/06 05:38:52;;;;;;;5.80;4.50;;;;;;;6.94;69.11;100003.38;5036252;28;20052;-79
2022/12/06 05:41:20;;;;;;;5.40;4.18;;;;;;;6.95;69.21;100004.22;5053926;28;20110;-78
2022/12/06 05:43:47;;;;;;;6.03;4.00;;;;;;;6.95;68.87;99999.84;5053868;28;20735;-79
2022/12/06 05:46:13;;;;;;;5.95;4.10;;;;;;;6.96;69.08;100004.19;5053685;28;20138;-80
2022/12/06 05:48:40;;;;;;;5.90;4.53;;;;;;;6.97;68.84;100000.66;5053820;28;20049;-80
2022/12/06 05:51:06;;;;;;;4.38;3.80;;;;;;;6.96;69.07;99996.31;5053379;28;20053;-80
2022/12/06 05:53:33;;;;;;;6.40;4.18;;;;;;;6.97;68.97;100002.41;5053170;28;20087;-80
2022/12/06 05:56:07;;;;;;;5.63;3.72;;;;;;;6.95;69.27;99993.75;5053064;28;20084;-79
2022/12/06 05:58:34;;;;;;;6.30;4.38;;;;;;;6.97;69.07;99998.03;5053296;28;20056;-80
2022/12/06 06:01:01;;;;;;;4.47;3.75;;;;;;;6.97;68.81;99998.03;5053117;28;20564;-80
2022/12/06 06:05:58;;;;;;;4.32;3.67;;;;;;;6.97;69.04;99998.03;5320434;22;20127;-84
2022/12/06 06:08:26;;;;;;;7.75;3.65;;;;;;;6.99;68.99;100000.59;5017176;28;20049;-84
2022/12/06 06:10:53;;;;;;;7.03;3.88;;;;;;;6.98;68.81;99999.72;5035100;28;20054;-84
2022/12/06 06:13:20;;;;;;;5.60;3.78;;;;;;;6.97;69.03;100002.41;5034844;28;20111;-84
2022/12/06 06:15:48;;;;;;;5.57;3.88;;;;;;;6.98;68.94;100010.19;5017646;28;20107;-84
2022/12/06 06:18:16;;;;;;;6.28;4.00;;;;;;;6.97;68.89;100003.25;5017615;28;20147;-84
2022/12/06 06:20:48;;;;;;;6.13;4.03;;;;;;;6.96;69.31;100006.78;5034956;28;20092;-83
2022/12/06 06:23:14;;;;;;;8.77;4.30;;;;;;;6.98;68.81;100010.19;5034961;28;20058;-84
2022/12/06 06:25:41;;;;;;;6.50;4.05;;;;;;;6.98;68.96;100002.34;5017026;28;20062;-84
2022/12/06 06:28:07;;;;;;;4.65;3.53;;;;;;;6.98;68.80;100002.34;5034894;28;20115;-83
2022/12/06 06:30:33;;;;;;;6.22;3.85;;;;;;;7.00;69.11;100002.28;5016744;28;20057;-84
2022/12/06 06:33:02;;;;;;;6.28;4.13;;;;;;;6.99;69.08;100000.59;5034753;28;20057;-86
2022/12/06 06:35:29;;;;;;;5.85;4.07;;;;;;;6.99;68.78;99998.81;5034796;28;20111;-84
2022/12/06 06:37:55;;;;;;;4.75;3.65;;;;;;;7.00;68.98;100004.91;5017174;28;20107;-84
2022/12/06 06:40:24;;;;;;;4.90;3.60;;;;;;;6.97;68.98;100008.50;5016921;28;20538;-84
2022/12/06 06:42:51;;;;;;;8.68;3.70;;;;;;;7.00;69.03;100010.13;5034621;28;20062;-84
2022/12/06 06:45:20;;;;;;;5.15;3.97;;;;;;;6.98;68.95;100007.56;5034465;28;20069;-83
2022/12/06 06:47:54;;;;;;;6.13;3.80;;;;;;;7.00;68.97;100010.13;5034195;28;20053;-84
2022/12/06 06:50:32;;;;;;;7.53;3.30;;;;;;;6.97;69.22;100007.63;5016551;28;20061;-84
2022/12/06 06:52:59;;;;;;;4.35;3.47;;;;;;;7.00;68.88;100013.59;5016885;28;20047;-84
2022/12/06 06:55:25;;;;;;;8.38;4.18;;;;;;;7.01;69.12;100019.69;5033802;28;20049;-84
2022/12/06 06:57:52;;;;;;;5.95;3.95;;;;;;;7.01;69.16;100017.06;5016593;28;20131;-84
2022/12/06 07:00:20;;;;;;;7.45;4.05;;;;;;;7.00;68.65;100013.59;5016547;28;20061;-84
2022/12/06 07:02:46;;;;;;;4.88;3.65;;;;;;;7.00;68.90;100013.59;5034085;28;20042;-84
2022/12/06 07:05:16;;;;;;;7.07;3.78;;;;;;;6.99;69.05;100022.38;5016731;28;20053;-84
2022/12/06 07:07:43;;;;;;;5.28;3.53;;;;;;;7.00;68.71;100021.44;5016230;28;20069;-83
2022/12/06 07:10:10;;;;;;;6.55;3.88;;;;;;;6.99;68.88;100024.16;5016865;28;20054;-83
2022/12/06 07:12:38;;;;;;;7.03;4.13;;;;;;;6.97;69.03;100029.44;5033720;28;20054;-83
2022/12/06 07:15:05;;;;;;;6.32;3.83;;;;;;;6.96;68.70;100025.13;5033953;28;20111;-83
2022/12/06 07:17:32;;;;;;;4.00;3.35;;;;;;;6.95;69.06;100020.78;5016555;28;20119;-83
2022/12/06 07:19:58;;;;;;;5.05;3.70;;;;;;;6.95;68.88;100033.03;5033943;28;20445;-83
2022/12/06 07:22:28;;;;;;;6.97;3.60;;;;;;;6.94;69.08;100029.53;5016337;28;20060;-83
2022/12/06 07:24:54;;;;;;;4.97;3.40;;;;;;;6.95;69.06;100035.63;5015639;28;20107;-83
2022/12/06 07:27:36;;;;;;;6.70;4.18;;;;;;;6.91;69.29;100038.34;5033306;28;20064;-83
2022/12/06 07:30:04;;;;;;;6.55;3.60;;;;;;;6.95;69.06;100040.88;5033772;28;20150;-83
2022/12/06 07:32:35;;;;;;;5.15;3.58;;;;;;;6.94;69.19;100034.78;5033322;28;20081;-83
2022/12/06 07:35:03;;;;;;;6.28;3.72;;;;;;;6.96;69.12;100042.56;5033715;28;20061;-84
2022/12/06 07:37:30;;;;;;;4.97;3.53;;;;;;;6.96;68.85;100038.19;5033529;28;20062;-84
2022/12/06 07:39:56;;;;;;;4.82;3.80;;;;;;;6.96;68.97;100038.19;5015845;28;20085;-84
2022/12/06 07:45:11;;;;;;;6.00;3.72;;;;;;;6.96;68.83;100040.81;5033067;28;20053;-84
2022/12/06 07:47:40;;;;;;;5.32;3.63;;;;;;;6.95;69.17;100043.50;5032191;28;20057;-84
2022/12/06 07:50:11;;;;;;;6.15;3.63;;;;;;;6.93;68.91;100042.69;5015532;28;20057;-84
2022/12/06 07:52:45;;;;;;;4.43;3.60;;;;;;;6.94;68.66;100045.25;4980123;28;20050;-84
2022/12/06 07:55:14;;;;;;;5.05;3.58;;;;;;;6.94;68.98;100039.13;5015409;28;20106;-84
2022/12/06 07:57:40;;;;;;;5.93;3.78;;;;;;;6.94;68.69;100044.38;5033074;28;20493;-84
2022/12/06 08:00:12;;;;;;;6.38;3.50;;;;;;;6.94;68.99;100044.38;5016080;28;20088;-84
2022/12/06 08:02:41;;;;;;;5.15;3.83;;;;;;;6.91;69.05;100046.22;5015358;28;20064;-84
2022/12/06 08:05:08;;;;;;;3.72;3.20;;;;;;;6.92;68.98;100052.31;5032645;28;20460;-84
2022/12/06 08:07:35;;;;;;;5.55;3.30;;;;;;;6.92;68.97;100057.53;5014889;28;20057;-84
2022/12/06 08:10:04;;;;;;;6.53;3.75;;;;;;;6.91;68.97;100061.06;5032672;28;20058;-84
2022/12/06 08:12:31;;;;;;;6.75;3.80;;;;;;;6.90;68.91;100064.59;5014741;28;20053;-84
2022/12/06 08:14:57;;;;;;;4.97;3.40;;;;;;;6.91;69.09;100068.91;5015061;28;20100;-84
2022/12/06 08:17:28;;;;;;;5.15;3.35;;;;;;;6.89;69.01;100062.88;5015250;28;20413;-84
2022/12/06 08:19:55;;;;;;;5.13;3.58;;;;;;;6.90;69.14;100068.06;5032844;28;20111;-84
2022/12/06 08:22:27;;;;;;;5.63;3.72;;;;;;;6.88;69.18;100069.88;5015051;28;20523;-84
2022/12/06 08:24:54;;;;;;;4.55;3.45;;;;;;;6.91;68.95;100071.50;5015236;28;20069;-84
2022/12/06 08:27:20;;;;;;;7.10;3.40;;;;;;;6.90;69.14;100065.44;5015024;28;20053;-84
2022/12/06 08:29:47;;;;;;;5.30;3.50;;;;;;;6.90;68.96;100070.69;5015059;28;20131;-84
2022/12/06 08:32:13;;;;;;;6.30;3.28;;;;;;;6.91;68.91;100063.66;5032526;28;20050;-84
2022/12/06 08:34:41;;;;;;;6.28;3.72;;;;;;;6.91;69.04;100061.91;5032562;28;20107;-84
2022/12/06 08:37:08;;;;;;;5.03;3.45;;;;;;;6.93;69.30;100063.63;5014705;28;20064;-84
2022/12/06 08:39:34;;;;;;;5.50;3.10;;;;;;;6.94;69.19;100065.31;5014812;28;20111;-84
2022/12/06 08:42:02;;;;;;;4.93;3.63;;;;;;;6.97;69.46;100065.22;5015550;28;20077;-84
2022/12/06 08:44:32;;;;;;;6.03;3.35;;;;;;;6.96;69.46;100060.88;5015581;28;20115;-84
2022/12/06 08:47:00;;;;;;;6.20;3.70;;;;;;;6.99;69.61;100068.63;5015308;28;20088;-84
2022/12/06 08:49:33;;;;;;;5.78;3.80;;;;;;;6.99;69.44;100066.03;5032863;28;20438;-84
2022/12/06 08:52:00;;;;;;;5.40;3.53;;;;;;;7.04;69.13;100078.00;5032493;28;20049;-84
2022/12/06 08:54:27;;;;;;;4.63;3.20;;;;;;;7.06;68.77;100069.25;5032490;28;20057;-84
2022/12/06 08:56:54;;;;;;;4.00;3.22;;;;;;;7.07;69.16;100066.59;5014732;28;20107;-84
2022/12/06 08:59:21;;;;;;;4.82;3.28;;;;;;;7.09;68.91;100066.50;5032745;28;20111;-84
2022/12/06 09:01:47;;;;;;;6.05;3.00;;;;;;;7.09;68.99;100069.13;5015360;28;20115;-83
2022/12/06 09:04:14;;;;;;;6.25;3.03;;;;;;;7.09;69.27;100067.38;5015196;28;20545;-84
2022/12/06 09:06:57;;;;;;;4.32;3.00;;;;;;;7.07;69.02;100071.81;5014829;28;20053;-84
2022/12/06 09:09:23;;;;;;;5.38;3.08;;;;;;;7.13;68.99;100074.19;5032313;28;20061;-83
2022/12/06 09:11:57;;;;;;;5.07;3.38;;;;;;;7.11;69.05;100072.56;5014591;28;20049;-84
2022/12/06 09:14:23;;;;;;;3.90;3.17;;;;;;;7.15;69.32;100074.97;5014575;28;20127;-84
2022/12/06 09:16:51;;;;;;;6.63;3.58;;;;;;;7.17;69.20;100072.31;5014780;28;20062;-84
2022/12/06 09:19:34;;;;;;;5.32;3.13;;;;;;;7.15;69.21;100080.22;5032406;28;20635;-84
2022/12/06 09:22:00;;;;;;;4.15;3.10;;;;;;;7.21;69.17;100078.31;5014708;28;20058;-84
2022/12/06 09:24:34;;;;;;;5.43;3.30;;;;;;;7.20;69.35;100077.44;5032043;28;20058;-84
2022/12/06 09:27:00;;;;;;;5.03;3.60;;;;;;;7.25;69.03;100074.66;5014908;28;20080;-84
2022/12/06 09:29:28;;;;;;;7.57;3.92;;;;;;;7.25;69.31;100077.28;5014668;28;20092;-84
2022/12/06 09:31:54;;;;;;;4.25;3.13;;;;;;;7.27;69.11;100075.44;5032236;28;20066;-84
2022/12/06 09:34:21;;;;;;;4.47;3.00;;;;;;;7.28;68.86;100075.38;5032530;28;20072;-84
2022/12/06 09:36:57;;;;;;;11.57;3.55;;;;;;;7.28;68.78;100079.75;5032295;28;20123;-84
2022/12/06 09:39:33;;;;;;;5.57;3.25;;;;;;;7.28;68.85;100078.00;5014514;28;20145;-84
2022/12/06 09:42:07;;;;;;;5.60;3.28;;;;;;;7.30;68.92;100086.63;5014753;28;20451;-84
2022/12/06 09:44:37;;;;;;;7.15;3.55;;;;;;;7.33;68.79;100083.06;5032244;28;20123;-84
2022/12/06 09:47:23;;;;;;;5.10;3.55;;;;;;;7.30;68.92;100076.16;5032195;28;20049;-84
2022/12/06 09:50:20;;;;;;;7.28;3.80;;;;;;;7.34;69.12;100076.06;5014878;28;20092;-84
2022/12/06 09:53:11;;;;;;;6.93;4.13;;;;;;;7.39;69.08;100069.75;5014450;28;20091;-84
2022/12/06 09:56:17;;;;;;;7.38;3.58;;;;;;;7.39;69.14;100074.97;5023027;28;20505;-84
2022/12/06 10:02:41;;;;;;;4.28;3.00;;;;;;;7.41;69.43;100060.03;5031690;28;20058;-84
2022/12/06 10:05:28;;;;;;;4.53;3.20;;;;;;;7.51;69.21;100054.47;5014689;28;20060;-84
2022/12/06 10:08:21;;;;;;;9.55;3.78;;;;;;;7.54;69.52;100051.69;5036349;28;20192;-84
2022/12/06 10:10:50;;;;;;;4.28;3.05;;;;;;;7.63;69.57;100048.72;5035834;28;20107;-84
2022/12/06 10:13:16;;;;;;;3.70;3.00;;;;;;;7.67;69.24;100052.91;5017771;28;20080;-84
2022/12/06 10:15:50;;;;;;;4.65;3.25;;;;;;;7.71;69.18;100056.28;5017970;28;20143;-84
2022/12/06 10:18:52;;;;;;;6.03;3.22;;;;;;;7.75;68.83;100051.75;5017693;28;20061;-84
2022/12/06 10:21:49;;;;;;;6.50;2.90;;;;;;;7.77;68.79;100042.06;4974407;28;20117;-84
2022/12/06 10:24:34;;;;;;;7.38;2.90;;;;;;;7.80;68.41;100047.19;4991469;28;20433;-84
2022/12/06 10:27:14;;;;;;;4.75;2.90;;;;;;;7.81;68.84;100043.63;5035477;28;20111;-84
2022/12/06 10:29:56;;;;;;;6.30;2.85;;;;;;;7.82;68.74;100042.75;5035425;28;20065;-84
2022/12/06 10:32:40;;;;;;;4.22;3.40;;;;;;;7.86;68.60;100044.34;5035459;28;20054;-84
2022/12/06 10:35:24;;;;;;;6.65;3.30;;;;;;;7.86;68.64;100039.09;5035549;28;20116;-84
2022/12/06 10:38:22;;;;;;;3.55;2.85;;;;;;;7.87;68.36;100045.16;5035176;28;20425;-84
2022/12/06 10:41:25;;;;;;;4.45;2.95;;;;;;;7.89;68.29;100036.31;4973912;28;20110;-84
2022/12/06 10:44:05;;;;;;;3.78;2.55;;;;;;;7.90;67.84;100040.66;5017571;28;20049;-84
2022/12/06 10:50:22;;;;;;;3.58;2.60;;;;;;;7.91;67.74;100039.75;5034954;28;20143;-84
2022/12/06 10:53:11;;;;;;;5.07;2.90;;;;;;;7.85;67.39;100037.34;5034884;28;20449;-84
2022/12/06 10:56:01;;;;;;;3.75;2.78;;;;;;;7.85;67.52;100041.75;5034503;28;20088;-84
2022/12/06 10:58:55;;;;;;;4.80;3.15;;;;;;;7.81;67.86;100038.41;5016843;28;20092;-84
2022/12/06 11:01:27;;;;;;;5.53;3.13;;;;;;;7.84;67.67;100040.06;5016990;28;20061;-84
2022/12/06 11:04:43;;;;;;;4.88;3.13;;;;;;;7.81;67.90;100034.03;5035028;28;20143;-84
2022/12/06 11:07:27;;;;;;;3.28;2.70;;;;;;;7.82;67.84;100037.50;4986940;28;20054;-84
2022/12/06 11:10:16;;;;;;;3.08;2.40;;;;;;;7.81;67.34;100036.63;4987037;28;20077;-84
2022/12/06 11:12:43;;;;;;;5.30;2.78;;;;;;;7.87;68.27;100025.06;5016768;28;20107;-84
2022/12/06 11:15:26;;;;;;;5.22;2.40;;;;;;;7.86;68.16;100025.97;5034655;28;20085;-84
2022/12/06 11:18:03;;;;;;;2.85;2.25;;;;;;;7.90;68.00;100021.47;5015245;28;20100;-84
2022/12/06 11:20:40;;;;;;;4.70;2.45;;;;;;;7.94;68.36;100023.91;5014008;28;20111;-84
2022/12/06 11:26:22;;;;;;;4.55;2.72;;;;;;;8.05;67.63;100019.97;5032476;28;20049;-84
2022/12/06 11:29:03;;;;;;;2.95;2.05;;;;;;;8.07;67.35;100025.97;5016559;28;20069;-84
2022/12/06 11:31:52;;;;;;;2.83;2.30;;;;;;;8.11;67.73;100026.72;5034183;28;20057;-84
2022/12/06 11:34:27;;;;;;;4.05;2.05;;;;;;;8.16;68.33;100023.00;5033887;28;20466;-84
2022/12/06 11:36:58;;;;;;;2.40;2.20;;;;;;;8.34;70.97;100016.09;5016355;28;20065;-84
2022/12/06 11:39:27;;;;;;;3.63;2.28;;;;;;;8.62;70.96;100018.44;5016446;28;20391;-84
2022/12/06 11:41:56;;;;;;;2.20;2.00;;;;;;;8.86;69.48;100013.88;5016328;28;20441;-84
2022/12/06 11:44:25;;;;;;;2.38;2.17;;;;;;;9.02;67.82;100008.75;5016440;28;20096;-84
2022/12/06 11:46:57;;;;;;;2.88;2.45;;;;;;;9.12;66.11;100014.41;5033500;28;20054;-84
2022/12/06 11:49:30;;;;;;;2.90;2.63;;;;;;;9.15;65.70;100008.19;5016573;28;20489;-84
2022/12/06 11:52:05;;;;;;;3.08;2.78;;;;;;;9.12;65.00;100001.28;5016308;28;20053;-84
2022/12/06 11:54:37;;;;;;;4.43;2.85;;;;;;;9.06;65.12;100005.06;5033984;28;20099;-84
2022/12/06 11:57:34;;;;;;;5.15;3.50;;;;;;;9.02;65.68;100007.91;5016379;28;20091;-84
2022/12/06 12:00:28;;;;;;;4.35;3.95;;;;;;;9.23;68.45;100000.78;5033611;28;20053;-84
2022/12/06 12:02:57;;;;;;;4.22;3.83;;;;;;;9.67;73.44;99998.69;5024719;28;20135;-84
2022/12/06 12:08:19;;;;;;;4.65;4.22;;;;;;;10.69;69.32;99993.50;4969786;28;20569;-79
2022/12/06 12:10:57;;;;;;;5.13;4.63;;;;;;;10.98;65.26;99990.22;4971866;28;20062;-79
2022/12/06 12:13:44;;;;;;;6.47;5.32;;;;;;;11.20;66.40;99994.31;4971780;28;20557;-78
2022/12/06 12:16:28;;;;;;;6.90;5.80;;;;;;;11.47;67.23;99996.31;4969179;28;20141;-79
2022/12/06 12:18:59;;;;;;;7.57;6.10;;;;;;;11.86;66.93;99988.84;4991034;28;20434;-78
2022/12/06 12:21:33;;;;;;;6.32;5.72;;;;;;;12.29;65.90;99979.34;4991307;28;20100;-78
2022/12/06 12:23:59;;;;;;;6.93;6.22;;;;;;;12.76;67.61;99985.25;4991378;28;20300;-79
2022/12/06 12:26:38;;;;;;;7.75;6.93;;;;;;;13.20;63.42;99979.88;4990978;28;20109;-79
2022/12/06 12:29:15;;;;;;;8.70;7.30;;;;;;;13.63;62.68;99977.09;4990922;28;20145;-79